sensor_id;sensor_type;location;lat;lon;timestamp;P1;durP1;ratioP1;P2;durP2;ratioP2
73132;SDS011;61320;52.008;4.530;2022-12-29T00:02:08;2.86;;;2.86;;
73132;SDS011;61320;52.008;4.530;2022-12-29T00:04:34;2.82;;;2.82;;
73132;SDS011;61320;52.008;4.530;2022-12-29T00:07:00;2.84;;;2.84;;
73132;SDS011;61320;52.008;4.530;2022-12-29T00:09:26;2.92;;;2.92;;
73132;SDS011;61320;52.008;4.530;2022-12-29T00:11:52;2.94;;;2.94;;
73132;SDS011;61320;52.008;4.530;2022-12-29T00:14:17;2.61;;;2.61;;
73132;SDS011;61320;52.008;4.530;2022-12-29T00:17:02;2.48;;;2.48;;
73132;SDS011;61320;52.008;4.530;2022-12-29T00:19:28;2.44;;;2.44;;
73132;SDS011;61320;52.008;4.530;2022-12-29T00:22:13;2.58;;;2.58;;
73132;SDS011;61320;52.008;4.530;2022-12-29T00:24:58;2.24;;;2.24;;
73132;SDS011;61320;52.008;4.530;2022-12-29T00:27:30;2.05;;;2.05;;
73132;SDS011;61320;52.008;4.530;2022-12-29T00:30:22;2.27;;;2.27;;
73132;SDS011;61320;52.008;4.530;2022-12-29T00:33:11;2.25;;;2.25;;
73132;SDS011;61320;52.008;4.530;2022-12-29T00:38:41;2.32;;;2.32;;
73132;SDS011;61320;52.008;4.530;2022-12-29T00:41:31;2.10;;;2.10;;
73132;SDS011;61320;52.008;4.530;2022-12-29T00:44:15;2.21;;;2.21;;
73132;SDS011;61320;52.008;4.530;2022-12-29T00:46:41;2.25;;;2.25;;
73132;SDS011;61320;52.008;4.530;2022-12-29T00:49:08;2.34;;;2.34;;
73132;SDS011;61320;52.008;4.530;2022-12-29T00:51:55;2.39;;;2.39;;
73132;SDS011;61320;52.008;4.530;2022-12-29T00:54:23;2.19;;;2.19;;
73132;SDS011;61320;52.008;4.530;2022-12-29T00:56:49;2.00;;;2.00;;
73132;SDS011;61320;52.008;4.530;2022-12-29T00:59:16;2.20;;;2.20;;
73132;SDS011;61320;52.008;4.530;2022-12-29T01:01:43;2.10;;;2.10;;
73132;SDS011;61320;52.008;4.530;2022-12-29T01:04:10;2.00;;;2.00;;
73132;SDS011;61320;52.008;4.530;2022-12-29T01:06:37;1.79;;;1.79;;
73132;SDS011;61320;52.008;4.530;2022-12-29T01:09:04;1.77;;;1.77;;
73132;SDS011;61320;52.008;4.530;2022-12-29T01:11:48;1.76;;;1.76;;
73132;SDS011;61320;52.008;4.530;2022-12-29T01:14:14;2.12;;;2.12;;
73132;SDS011;61320;52.008;4.530;2022-12-29T01:16:40;1.86;;;1.86;;
73132;SDS011;61320;52.008;4.530;2022-12-29T01:19:05;2.07;;;2.07;;
73132;SDS011;61320;52.008;4.530;2022-12-29T01:21:31;2.36;;;2.36;;
73132;SDS011;61320;52.008;4.530;2022-12-29T01:23:57;2.43;;;2.43;;
73132;SDS011;61320;52.008;4.530;2022-12-29T01:26:23;2.26;;;2.26;;
73132;SDS011;61320;52.008;4.530;2022-12-29T01:28:48;2.30;;;2.30;;
73132;SDS011;61320;52.008;4.530;2022-12-29T01:31:14;2.83;;;2.83;;
73132;SDS011;61320;52.008;4.530;2022-12-29T01:33:40;2.66;;;2.66;;
73132;SDS011;61320;52.008;4.530;2022-12-29T01:36:08;2.50;;;2.50;;
73132;SDS011;61320;52.008;4.530;2022-12-29T01:38:39;2.50;;;2.50;;
73132;SDS011;61320;52.008;4.530;2022-12-29T01:41:06;2.53;;;2.53;;
73132;SDS011;61320;52.008;4.530;2022-12-29T01:49:24;2.21;;;2.21;;
73132;SDS011;61320;52.008;4.530;2022-12-29T01:51:45;1.96;;;1.96;;
73132;SDS011;61320;52.008;4.530;2022-12-29T01:54:16;1.78;;;1.78;;
73132;SDS011;61320;52.008;4.530;2022-12-29T01:56:52;1.78;;;1.78;;
73132;SDS011;61320;52.008;4.530;2022-12-29T01:59:22;1.56;;;1.56;;
73132;SDS011;61320;52.008;4.530;2022-12-29T02:01:54;1.40;;;1.40;;
73132;SDS011;61320;52.008;4.530;2022-12-29T02:04:20;1.69;;;1.63;;
73132;SDS011;61320;52.008;4.530;2022-12-29T02:06:51;1.64;;;1.50;;
73132;SDS011;61320;52.008;4.530;2022-12-29T02:09:22;2.09;;;1.82;;
73132;SDS011;61320;52.008;4.530;2022-12-29T02:11:48;2.30;;;1.92;;
73132;SDS011;61320;52.008;4.530;2022-12-29T02:14:14;2.35;;;1.89;;
73132;SDS011;61320;52.008;4.530;2022-12-29T02:27:55;3.42;;;2.46;;
73132;SDS011;61320;52.008;4.530;2022-12-29T02:31:24;2.95;;;2.08;;
73132;SDS011;61320;52.008;4.530;2022-12-29T02:41:59;3.24;;;2.26;;
73132;SDS011;61320;52.008;4.530;2022-12-29T02:44:48;3.06;;;2.13;;
73132;SDS011;61320;52.008;4.530;2022-12-29T02:49:56;4.68;;;3.15;;
73132;SDS011;61320;52.008;4.530;2022-12-29T02:55:15;5.89;;;3.73;;
73132;SDS011;61320;52.008;4.530;2022-12-29T02:57:41;7.16;;;4.43;;
73132;SDS011;61320;52.008;4.530;2022-12-29T03:00:13;7.67;;;4.67;;
73132;SDS011;61320;52.008;4.530;2022-12-29T03:02:51;7.99;;;4.80;;
73132;SDS011;61320;52.008;4.530;2022-12-29T03:08:34;8.12;;;4.91;;
73132;SDS011;61320;52.008;4.530;2022-12-29T03:11:20;7.44;;;4.52;;
73132;SDS011;61320;52.008;4.530;2022-12-29T03:14:14;7.14;;;4.38;;
73132;SDS011;61320;52.008;4.530;2022-12-29T03:17:19;5.73;;;3.63;;
73132;SDS011;61320;52.008;4.530;2022-12-29T03:19:53;5.96;;;3.77;;
73132;SDS011;61320;52.008;4.530;2022-12-29T03:22:29;6.10;;;3.82;;
73132;SDS011;61320;52.008;4.530;2022-12-29T03:25:03;5.54;;;3.46;;
73132;SDS011;61320;52.008;4.530;2022-12-29T03:27:35;5.85;;;3.65;;
73132;SDS011;61320;52.008;4.530;2022-12-29T03:30:07;5.28;;;3.30;;
73132;SDS011;61320;52.008;4.530;2022-12-29T03:32:47;5.18;;;3.24;;
73132;SDS011;61320;52.008;4.530;2022-12-29T03:35:20;5.38;;;3.40;;
73132;SDS011;61320;52.008;4.530;2022-12-29T03:37:51;4.75;;;3.03;;
73132;SDS011;61320;52.008;4.530;2022-12-29T03:40:23;4.72;;;3.01;;
73132;SDS011;61320;52.008;4.530;2022-12-29T03:42:51;4.92;;;3.16;;
73132;SDS011;61320;52.008;4.530;2022-12-29T03:45:19;5.08;;;3.24;;
73132;SDS011;61320;52.008;4.530;2022-12-29T03:47:45;5.06;;;3.22;;
73132;SDS011;61320;52.008;4.530;2022-12-29T03:50:14;4.47;;;2.85;;
73132;SDS011;61320;52.008;4.530;2022-12-29T03:52:39;5.34;;;3.41;;
73132;SDS011;61320;52.008;4.530;2022-12-29T03:55:05;4.13;;;2.65;;
73132;SDS011;61320;52.008;4.530;2022-12-29T03:57:31;5.11;;;3.31;;
73132;SDS011;61320;52.008;4.530;2022-12-29T03:59:56;5.10;;;3.35;;
73132;SDS011;61320;52.008;4.530;2022-12-29T04:02:22;4.91;;;3.24;;
73132;SDS011;61320;52.008;4.530;2022-12-29T04:04:48;4.96;;;3.27;;
73132;SDS011;61320;52.008;4.530;2022-12-29T04:07:14;6.12;;;3.93;;
73132;SDS011;61320;52.008;4.530;2022-12-29T04:09:39;6.99;;;4.37;;
73132;SDS011;61320;52.008;4.530;2022-12-29T04:12:05;7.55;;;4.61;;
73132;SDS011;61320;52.008;4.530;2022-12-29T04:14:30;7.74;;;4.68;;
73132;SDS011;61320;52.008;4.530;2022-12-29T04:16:56;8.97;;;5.36;;
73132;SDS011;61320;52.008;4.530;2022-12-29T04:19:21;10.91;;;6.44;;
73132;SDS011;61320;52.008;4.530;2022-12-29T04:21:46;9.73;;;5.78;;
73132;SDS011;61320;52.008;4.530;2022-12-29T04:24:12;8.90;;;5.29;;
73132;SDS011;61320;52.008;4.530;2022-12-29T04:26:39;8.46;;;5.00;;
73132;SDS011;61320;52.008;4.530;2022-12-29T04:29:04;8.83;;;5.23;;
73132;SDS011;61320;52.008;4.530;2022-12-29T04:31:30;7.60;;;4.54;;
73132;SDS011;61320;52.008;4.530;2022-12-29T04:33:55;7.83;;;4.72;;
73132;SDS011;61320;52.008;4.530;2022-12-29T04:36:22;7.51;;;4.49;;
73132;SDS011;61320;52.008;4.530;2022-12-29T04:38:48;6.78;;;4.09;;
73132;SDS011;61320;52.008;4.530;2022-12-29T04:41:13;6.40;;;3.88;;
73132;SDS011;61320;52.008;4.530;2022-12-29T04:43:39;6.52;;;3.99;;
73132;SDS011;61320;52.008;4.530;2022-12-29T04:46:04;6.23;;;3.82;;
73132;SDS011;61320;52.008;4.530;2022-12-29T04:48:30;5.96;;;3.70;;
73132;SDS011;61320;52.008;4.530;2022-12-29T04:50:55;6.29;;;3.89;;
73132;SDS011;61320;52.008;4.530;2022-12-29T04:53:21;6.35;;;3.93;;
73132;SDS011;61320;52.008;4.530;2022-12-29T04:55:50;6.60;;;4.04;;
73132;SDS011;61320;52.008;4.530;2022-12-29T04:58:17;6.66;;;4.09;;
73132;SDS011;61320;52.008;4.530;2022-12-29T05:00:46;7.27;;;4.43;;
73132;SDS011;61320;52.008;4.530;2022-12-29T05:03:11;7.68;;;4.72;;
73132;SDS011;61320;52.008;4.530;2022-12-29T05:05:37;7.96;;;4.90;;
73132;SDS011;61320;52.008;4.530;2022-12-29T05:08:02;8.61;;;5.29;;
73132;SDS011;61320;52.008;4.530;2022-12-29T05:10:28;8.40;;;5.13;;
73132;SDS011;61320;52.008;4.530;2022-12-29T05:12:53;9.28;;;5.62;;
73132;SDS011;61320;52.008;4.530;2022-12-29T05:15:19;9.35;;;5.65;;
73132;SDS011;61320;52.008;4.530;2022-12-29T05:17:44;10.45;;;6.40;;
73132;SDS011;61320;52.008;4.530;2022-12-29T05:20:10;9.31;;;5.68;;
73132;SDS011;61320;52.008;4.530;2022-12-29T05:22:36;10.24;;;6.18;;
73132;SDS011;61320;52.008;4.530;2022-12-29T05:25:02;8.92;;;5.45;;
73132;SDS011;61320;52.008;4.530;2022-12-29T05:27:28;9.16;;;5.59;;
73132;SDS011;61320;52.008;4.530;2022-12-29T05:29:53;8.86;;;5.42;;
73132;SDS011;61320;52.008;4.530;2022-12-29T05:32:19;9.73;;;6.02;;
73132;SDS011;61320;52.008;4.530;2022-12-29T05:34:45;9.30;;;5.91;;
73132;SDS011;61320;52.008;4.530;2022-12-29T05:37:10;8.40;;;5.44;;
73132;SDS011;61320;52.008;4.530;2022-12-29T05:39:36;8.55;;;5.53;;
73132;SDS011;61320;52.008;4.530;2022-12-29T05:42:01;9.17;;;5.84;;
73132;SDS011;61320;52.008;4.530;2022-12-29T05:44:27;9.62;;;6.01;;
73132;SDS011;61320;52.008;4.530;2022-12-29T05:46:53;10.37;;;6.37;;
73132;SDS011;61320;52.008;4.530;2022-12-29T05:49:18;11.07;;;6.80;;
73132;SDS011;61320;52.008;4.530;2022-12-29T05:51:43;11.17;;;6.84;;
73132;SDS011;61320;52.008;4.530;2022-12-29T05:54:09;10.75;;;6.49;;
73132;SDS011;61320;52.008;4.530;2022-12-29T05:56:34;12.55;;;7.57;;
73132;SDS011;61320;52.008;4.530;2022-12-29T05:59:00;12.72;;;7.56;;
73132;SDS011;61320;52.008;4.530;2022-12-29T06:01:26;11.95;;;7.16;;
73132;SDS011;61320;52.008;4.530;2022-12-29T06:03:51;11.16;;;6.78;;
73132;SDS011;61320;52.008;4.530;2022-12-29T06:06:17;10.58;;;6.43;;
73132;SDS011;61320;52.008;4.530;2022-12-29T06:08:42;10.30;;;6.37;;
73132;SDS011;61320;52.008;4.530;2022-12-29T06:11:08;9.55;;;6.13;;
73132;SDS011;61320;52.008;4.530;2022-12-29T06:13:33;8.80;;;5.55;;
73132;SDS011;61320;52.008;4.530;2022-12-29T06:15:59;10.44;;;6.48;;
73132;SDS011;61320;52.008;4.530;2022-12-29T06:18:24;10.84;;;6.55;;
73132;SDS011;61320;52.008;4.530;2022-12-29T06:20:50;10.71;;;6.50;;
73132;SDS011;61320;52.008;4.530;2022-12-29T06:23:15;11.14;;;6.72;;
73132;SDS011;61320;52.008;4.530;2022-12-29T06:25:41;11.40;;;6.83;;
73132;SDS011;61320;52.008;4.530;2022-12-29T06:28:07;11.88;;;7.18;;
73132;SDS011;61320;52.008;4.530;2022-12-29T06:30:32;11.32;;;6.87;;
73132;SDS011;61320;52.008;4.530;2022-12-29T06:32:58;11.24;;;6.77;;
73132;SDS011;61320;52.008;4.530;2022-12-29T06:35:26;10.50;;;6.33;;
73132;SDS011;61320;52.008;4.530;2022-12-29T06:37:52;11.40;;;6.79;;
73132;SDS011;61320;52.008;4.530;2022-12-29T06:40:17;14.53;;;8.46;;
73132;SDS011;61320;52.008;4.530;2022-12-29T06:42:43;13.97;;;8.17;;
73132;SDS011;61320;52.008;4.530;2022-12-29T06:45:08;14.39;;;8.48;;
73132;SDS011;61320;52.008;4.530;2022-12-29T06:47:34;12.77;;;7.54;;
73132;SDS011;61320;52.008;4.530;2022-12-29T06:50:01;11.71;;;6.90;;
73132;SDS011;61320;52.008;4.530;2022-12-29T06:52:28;10.68;;;6.28;;
73132;SDS011;61320;52.008;4.530;2022-12-29T06:54:53;10.35;;;6.12;;
73132;SDS011;61320;52.008;4.530;2022-12-29T06:57:19;9.61;;;5.72;;
73132;SDS011;61320;52.008;4.530;2022-12-29T06:59:46;8.97;;;5.46;;
73132;SDS011;61320;52.008;4.530;2022-12-29T07:02:11;8.09;;;4.93;;
73132;SDS011;61320;52.008;4.530;2022-12-29T07:04:39;9.43;;;5.73;;
73132;SDS011;61320;52.008;4.530;2022-12-29T07:07:04;9.27;;;5.65;;
73132;SDS011;61320;52.008;4.530;2022-12-29T07:09:30;8.60;;;5.23;;
73132;SDS011;61320;52.008;4.530;2022-12-29T07:11:55;9.89;;;5.91;;
73132;SDS011;61320;52.008;4.530;2022-12-29T07:14:21;8.80;;;5.29;;
73132;SDS011;61320;52.008;4.530;2022-12-29T07:16:46;9.32;;;5.61;;
73132;SDS011;61320;52.008;4.530;2022-12-29T07:19:12;10.03;;;6.06;;
73132;SDS011;61320;52.008;4.530;2022-12-29T07:21:37;9.94;;;5.98;;
73132;SDS011;61320;52.008;4.530;2022-12-29T07:24:03;10.75;;;6.49;;
73132;SDS011;61320;52.008;4.530;2022-12-29T07:26:28;9.13;;;5.67;;
73132;SDS011;61320;52.008;4.530;2022-12-29T07:28:54;9.70;;;6.16;;
73132;SDS011;61320;52.008;4.530;2022-12-29T07:31:21;8.97;;;5.76;;
73132;SDS011;61320;52.008;4.530;2022-12-29T07:33:47;10.21;;;6.61;;
73132;SDS011;61320;52.008;4.530;2022-12-29T07:36:14;9.74;;;6.30;;
73132;SDS011;61320;52.008;4.530;2022-12-29T07:38:42;9.16;;;6.17;;
73132;SDS011;61320;52.008;4.530;2022-12-29T07:41:08;8.31;;;5.52;;
73132;SDS011;61320;52.008;4.530;2022-12-29T07:43:34;9.33;;;6.00;;
73132;SDS011;61320;52.008;4.530;2022-12-29T07:45:59;10.58;;;6.58;;
73132;SDS011;61320;52.008;4.530;2022-12-29T07:48:24;10.70;;;6.54;;
73132;SDS011;61320;52.008;4.530;2022-12-29T07:50:50;12.88;;;7.77;;
73132;SDS011;61320;52.008;4.530;2022-12-29T07:53:17;12.23;;;7.34;;
73132;SDS011;61320;52.008;4.530;2022-12-29T07:55:42;12.55;;;7.51;;
73132;SDS011;61320;52.008;4.530;2022-12-29T07:58:08;12.33;;;7.54;;
73132;SDS011;61320;52.008;4.530;2022-12-29T08:00:33;11.04;;;6.71;;
73132;SDS011;61320;52.008;4.530;2022-12-29T08:02:59;12.75;;;7.66;;
73132;SDS011;61320;52.008;4.530;2022-12-29T08:05:25;13.49;;;8.10;;
73132;SDS011;61320;52.008;4.530;2022-12-29T08:07:50;13.33;;;7.95;;
73132;SDS011;61320;52.008;4.530;2022-12-29T08:10:16;13.35;;;7.99;;
73132;SDS011;61320;52.008;4.530;2022-12-29T08:12:42;12.63;;;7.61;;
73132;SDS011;61320;52.008;4.530;2022-12-29T08:15:09;11.95;;;7.22;;
73132;SDS011;61320;52.008;4.530;2022-12-29T08:17:36;12.97;;;7.92;;
73132;SDS011;61320;52.008;4.530;2022-12-29T08:20:02;12.65;;;7.69;;
73132;SDS011;61320;52.008;4.530;2022-12-29T08:22:28;11.87;;;7.18;;
73132;SDS011;61320;52.008;4.530;2022-12-29T08:24:54;12.73;;;7.56;;
73132;SDS011;61320;52.008;4.530;2022-12-29T08:27:19;12.38;;;7.46;;
73132;SDS011;61320;52.008;4.530;2022-12-29T08:29:45;12.70;;;7.74;;
73132;SDS011;61320;52.008;4.530;2022-12-29T08:32:10;11.38;;;6.98;;
73132;SDS011;61320;52.008;4.530;2022-12-29T08:34:36;12.03;;;7.35;;
73132;SDS011;61320;52.008;4.530;2022-12-29T08:37:02;12.82;;;7.73;;
73132;SDS011;61320;52.008;4.530;2022-12-29T08:39:27;10.18;;;6.28;;
73132;SDS011;61320;52.008;4.530;2022-12-29T08:41:53;12.09;;;7.29;;
73132;SDS011;61320;52.008;4.530;2022-12-29T08:44:19;11.45;;;6.90;;
73132;SDS011;61320;52.008;4.530;2022-12-29T08:46:45;11.61;;;7.02;;
73132;SDS011;61320;52.008;4.530;2022-12-29T08:49:11;10.55;;;6.50;;
73132;SDS011;61320;52.008;4.530;2022-12-29T08:51:36;11.96;;;7.28;;
73132;SDS011;61320;52.008;4.530;2022-12-29T08:54:02;11.83;;;7.29;;
73132;SDS011;61320;52.008;4.530;2022-12-29T08:56:27;10.82;;;6.82;;
73132;SDS011;61320;52.008;4.530;2022-12-29T08:58:53;10.40;;;6.59;;
73132;SDS011;61320;52.008;4.530;2022-12-29T09:01:19;10.91;;;6.77;;
73132;SDS011;61320;52.008;4.530;2022-12-29T09:03:46;11.75;;;7.26;;
73132;SDS011;61320;52.008;4.530;2022-12-29T09:06:12;12.23;;;7.55;;
73132;SDS011;61320;52.008;4.530;2022-12-29T09:08:38;10.89;;;6.87;;
73132;SDS011;61320;52.008;4.530;2022-12-29T09:11:06;9.76;;;6.21;;
73132;SDS011;61320;52.008;4.530;2022-12-29T09:13:35;9.21;;;5.94;;
73132;SDS011;61320;52.008;4.530;2022-12-29T09:16:01;9.85;;;6.26;;
73132;SDS011;61320;52.008;4.530;2022-12-29T09:18:27;9.63;;;6.15;;
73132;SDS011;61320;52.008;4.530;2022-12-29T09:20:56;9.47;;;6.09;;
73132;SDS011;61320;52.008;4.530;2022-12-29T09:23:23;9.92;;;6.46;;
73132;SDS011;61320;52.008;4.530;2022-12-29T09:25:49;9.42;;;6.04;;
73132;SDS011;61320;52.008;4.530;2022-12-29T09:28:14;11.34;;;7.08;;
73132;SDS011;61320;52.008;4.530;2022-12-29T09:30:41;10.73;;;6.67;;
73132;SDS011;61320;52.008;4.530;2022-12-29T09:33:07;9.89;;;6.24;;
73132;SDS011;61320;52.008;4.530;2022-12-29T09:35:32;10.00;;;6.40;;
73132;SDS011;61320;52.008;4.530;2022-12-29T09:37:58;9.81;;;6.32;;
73132;SDS011;61320;52.008;4.530;2022-12-29T09:40:24;9.85;;;6.28;;
73132;SDS011;61320;52.008;4.530;2022-12-29T09:45:45;9.32;;;6.11;;
73132;SDS011;61320;52.008;4.530;2022-12-29T09:48:37;9.94;;;6.38;;
73132;SDS011;61320;52.008;4.530;2022-12-29T09:51:13;10.20;;;6.42;;
73132;SDS011;61320;52.008;4.530;2022-12-29T09:53:48;11.43;;;7.14;;
73132;SDS011;61320;52.008;4.530;2022-12-29T09:56:21;11.75;;;7.34;;
73132;SDS011;61320;52.008;4.530;2022-12-29T09:58:58;12.54;;;7.84;;
73132;SDS011;61320;52.008;4.530;2022-12-29T10:01:34;13.23;;;8.09;;
73132;SDS011;61320;52.008;4.530;2022-12-29T10:04:02;13.72;;;8.38;;
73132;SDS011;61320;52.008;4.530;2022-12-29T10:06:44;14.85;;;9.02;;
73132;SDS011;61320;52.008;4.530;2022-12-29T10:17:41;15.57;;;10.00;;
73132;SDS011;61320;52.008;4.530;2022-12-29T10:26:11;17.62;;;10.85;;
73132;SDS011;61320;52.008;4.530;2022-12-29T10:28:43;16.78;;;10.26;;
73132;SDS011;61320;52.008;4.530;2022-12-29T10:31:21;17.16;;;10.48;;
73132;SDS011;61320;52.008;4.530;2022-12-29T10:33:50;18.92;;;11.42;;
73132;SDS011;61320;52.008;4.530;2022-12-29T10:36:24;18.35;;;11.05;;
73132;SDS011;61320;52.008;4.530;2022-12-29T10:41:41;15.83;;;9.82;;
73132;SDS011;61320;52.008;4.530;2022-12-29T10:44:14;17.12;;;10.60;;
73132;SDS011;61320;52.008;4.530;2022-12-29T10:46:42;17.42;;;10.83;;
73132;SDS011;61320;52.008;4.530;2022-12-29T10:49:16;16.75;;;10.63;;
73132;SDS011;61320;52.008;4.530;2022-12-29T10:51:44;16.57;;;10.44;;
73132;SDS011;61320;52.008;4.530;2022-12-29T10:56:46;17.83;;;10.88;;
73132;SDS011;61320;52.008;4.530;2022-12-29T10:59:20;17.65;;;11.01;;
73132;SDS011;61320;52.008;4.530;2022-12-29T11:01:54;16.44;;;10.32;;
73132;SDS011;61320;52.008;4.530;2022-12-29T11:07:29;20.77;;;13.03;;
73132;SDS011;61320;52.008;4.530;2022-12-29T11:09:55;20.68;;;13.08;;
73132;SDS011;61320;52.008;4.530;2022-12-29T11:12:54;19.43;;;12.58;;
73132;SDS011;61320;52.008;4.530;2022-12-29T11:15:23;17.28;;;10.88;;
73132;SDS011;61320;52.008;4.530;2022-12-29T11:17:51;17.94;;;10.85;;
73132;SDS011;61320;52.008;4.530;2022-12-29T11:20:37;17.14;;;10.38;;
73132;SDS011;61320;52.008;4.530;2022-12-29T11:23:04;16.66;;;10.13;;
73132;SDS011;61320;52.008;4.530;2022-12-29T11:25:46;20.44;;;12.54;;
73132;SDS011;61320;52.008;4.530;2022-12-29T11:28:30;16.67;;;10.43;;
73132;SDS011;61320;52.008;4.530;2022-12-29T11:31:00;18.10;;;11.04;;
73132;SDS011;61320;52.008;4.530;2022-12-29T11:33:31;18.85;;;11.28;;
73132;SDS011;61320;52.008;4.530;2022-12-29T11:36:05;20.50;;;12.30;;
73132;SDS011;61320;52.008;4.530;2022-12-29T11:38:48;18.10;;;11.15;;
73132;SDS011;61320;52.008;4.530;2022-12-29T11:41:23;17.55;;;10.60;;
73132;SDS011;61320;52.008;4.530;2022-12-29T11:43:51;15.10;;;9.09;;
73132;SDS011;61320;52.008;4.530;2022-12-29T11:46:23;15.95;;;9.56;;
73132;SDS011;61320;52.008;4.530;2022-12-29T11:48:52;14.82;;;8.79;;
73132;SDS011;61320;52.008;4.530;2022-12-29T11:51:23;13.23;;;8.02;;
73132;SDS011;61320;52.008;4.530;2022-12-29T11:53:57;12.34;;;7.63;;
73132;SDS011;61320;52.008;4.530;2022-12-29T11:56:37;14.17;;;8.68;;
73132;SDS011;61320;52.008;4.530;2022-12-29T12:01:56;16.05;;;9.83;;
73132;SDS011;61320;52.008;4.530;2022-12-29T12:04:28;18.18;;;11.00;;
73132;SDS011;61320;52.008;4.530;2022-12-29T12:07:15;17.32;;;10.59;;
73132;SDS011;61320;52.008;4.530;2022-12-29T12:10:01;16.65;;;10.51;;
73132;SDS011;61320;52.008;4.530;2022-12-29T12:12:44;16.74;;;10.46;;
73132;SDS011;61320;52.008;4.530;2022-12-29T12:15:22;15.42;;;10.06;;
73132;SDS011;61320;52.008;4.530;2022-12-29T12:18:03;13.91;;;8.84;;
73132;SDS011;61320;52.008;4.530;2022-12-29T12:20:36;13.62;;;8.73;;
73132;SDS011;61320;52.008;4.530;2022-12-29T12:25:57;13.43;;;8.38;;
73132;SDS011;61320;52.008;4.530;2022-12-29T12:31:39;13.25;;;8.27;;
73132;SDS011;61320;52.008;4.530;2022-12-29T12:34:13;12.75;;;8.42;;
73132;SDS011;61320;52.008;4.530;2022-12-29T12:42:02;9.57;;;6.18;;
73132;SDS011;61320;52.008;4.530;2022-12-29T12:44:37;10.34;;;6.58;;
73132;SDS011;61320;52.008;4.530;2022-12-29T12:49:42;11.74;;;7.37;;
73132;SDS011;61320;52.008;4.530;2022-12-29T13:12:39;12.31;;;7.88;;
73132;SDS011;61320;52.008;4.530;2022-12-29T13:26:26;13.11;;;8.09;;
73132;SDS011;61320;52.008;4.530;2022-12-29T13:29:20;14.59;;;8.96;;
73132;SDS011;61320;52.008;4.530;2022-12-29T13:37:20;11.73;;;7.58;;
73132;SDS011;61320;52.008;4.530;2022-12-29T13:39:57;11.45;;;7.65;;
73132;SDS011;61320;52.008;4.530;2022-12-29T13:42:30;9.63;;;7.29;;
73132;SDS011;61320;52.008;4.530;2022-12-29T13:45:02;7.83;;;6.62;;
73132;SDS011;61320;52.008;4.530;2022-12-29T13:47:44;6.19;;;5.50;;
73132;SDS011;61320;52.008;4.530;2022-12-29T13:50:19;6.11;;;5.43;;
73132;SDS011;61320;52.008;4.530;2022-12-29T13:58:15;4.79;;;4.19;;
73132;SDS011;61320;52.008;4.530;2022-12-29T14:01:03;4.15;;;3.58;;
73132;SDS011;61320;52.008;4.530;2022-12-29T14:03:53;4.54;;;3.87;;
73132;SDS011;61320;52.008;4.530;2022-12-29T14:06:23;5.79;;;4.76;;
73132;SDS011;61320;52.008;4.530;2022-12-29T14:08:55;4.95;;;3.95;;
73132;SDS011;61320;52.008;4.530;2022-12-29T14:14:10;5.48;;;3.99;;
73132;SDS011;61320;52.008;4.530;2022-12-29T14:17:04;5.87;;;4.15;;
73132;SDS011;61320;52.008;4.530;2022-12-29T14:19:36;6.63;;;4.66;;
73132;SDS011;61320;52.008;4.530;2022-12-29T14:22:06;6.89;;;4.87;;
73132;SDS011;61320;52.008;4.530;2022-12-29T14:27:00;5.86;;;4.55;;
73132;SDS011;61320;52.008;4.530;2022-12-29T14:29:49;6.48;;;4.85;;
73132;SDS011;61320;52.008;4.530;2022-12-29T14:34:57;6.98;;;4.89;;
73132;SDS011;61320;52.008;4.530;2022-12-29T14:37:34;7.25;;;4.99;;
73132;SDS011;61320;52.008;4.530;2022-12-29T14:40:23;7.26;;;4.77;;
73132;SDS011;61320;52.008;4.530;2022-12-29T14:42:51;6.80;;;4.54;;
73132;SDS011;61320;52.008;4.530;2022-12-29T14:47:49;6.45;;;4.30;;
73132;SDS011;61320;52.008;4.530;2022-12-29T14:50:22;6.84;;;4.63;;
73132;SDS011;61320;52.008;4.530;2022-12-29T14:55:29;7.53;;;5.08;;
73132;SDS011;61320;52.008;4.530;2022-12-29T14:58:15;6.71;;;4.72;;
73132;SDS011;61320;52.008;4.530;2022-12-29T15:00:51;6.01;;;4.25;;
73132;SDS011;61320;52.008;4.530;2022-12-29T15:05:51;6.40;;;4.42;;
73132;SDS011;61320;52.008;4.530;2022-12-29T15:08:21;6.81;;;4.69;;
73132;SDS011;61320;52.008;4.530;2022-12-29T15:10:55;6.59;;;4.48;;
73132;SDS011;61320;52.008;4.530;2022-12-29T15:13:34;6.18;;;4.40;;
73132;SDS011;61320;52.008;4.530;2022-12-29T15:16:03;6.43;;;4.57;;
73132;SDS011;61320;52.008;4.530;2022-12-29T15:18:30;7.21;;;4.96;;
73132;SDS011;61320;52.008;4.530;2022-12-29T15:20:59;7.35;;;4.90;;
73132;SDS011;61320;52.008;4.530;2022-12-29T15:23:27;8.13;;;5.55;;
73132;SDS011;61320;52.008;4.530;2022-12-29T15:25:57;9.10;;;6.06;;
73132;SDS011;61320;52.008;4.530;2022-12-29T15:28:25;9.65;;;6.15;;
73132;SDS011;61320;52.008;4.530;2022-12-29T15:30:56;11.24;;;7.03;;
73132;SDS011;61320;52.008;4.530;2022-12-29T15:33:28;10.18;;;6.46;;
73132;SDS011;61320;52.008;4.530;2022-12-29T15:35:54;10.41;;;6.54;;
73132;SDS011;61320;52.008;4.530;2022-12-29T15:40:56;11.04;;;7.03;;
73132;SDS011;61320;52.008;4.530;2022-12-29T15:46:31;7.57;;;5.33;;
73132;SDS011;61320;52.008;4.530;2022-12-29T15:48:57;6.96;;;4.95;;
73132;SDS011;61320;52.008;4.530;2022-12-29T15:51:26;6.85;;;4.78;;
73132;SDS011;61320;52.008;4.530;2022-12-29T15:54:04;6.97;;;4.75;;
73132;SDS011;61320;52.008;4.530;2022-12-29T15:56:37;8.19;;;5.54;;
73132;SDS011;61320;52.008;4.530;2022-12-29T15:59:03;7.56;;;5.03;;
73132;SDS011;61320;52.008;4.530;2022-12-29T16:03:58;8.77;;;6.00;;
73132;SDS011;61320;52.008;4.530;2022-12-29T16:06:35;7.40;;;5.19;;
73132;SDS011;61320;52.008;4.530;2022-12-29T16:09:06;6.75;;;4.74;;
73132;SDS011;61320;52.008;4.530;2022-12-29T16:11:47;7.37;;;5.21;;
73132;SDS011;61320;52.008;4.530;2022-12-29T16:14:18;6.18;;;4.40;;
73132;SDS011;61320;52.008;4.530;2022-12-29T16:16:49;7.03;;;5.00;;
73132;SDS011;61320;52.008;4.530;2022-12-29T16:19:29;7.06;;;5.03;;
73132;SDS011;61320;52.008;4.530;2022-12-29T16:22:00;6.83;;;4.93;;
73132;SDS011;61320;52.008;4.530;2022-12-29T16:24:30;8.09;;;5.84;;
73132;SDS011;61320;52.008;4.530;2022-12-29T16:29:23;6.98;;;5.34;;
73132;SDS011;61320;52.008;4.530;2022-12-29T16:31:50;7.33;;;5.48;;
73132;SDS011;61320;52.008;4.530;2022-12-29T16:36:57;7.42;;;5.13;;
73132;SDS011;61320;52.008;4.530;2022-12-29T16:41:53;8.49;;;5.88;;
73132;SDS011;61320;52.008;4.530;2022-12-29T16:44:29;7.51;;;5.20;;
73132;SDS011;61320;52.008;4.530;2022-12-29T16:46:57;8.05;;;5.48;;
73132;SDS011;61320;52.008;4.530;2022-12-29T16:49:30;8.98;;;6.11;;
73132;SDS011;61320;52.008;4.530;2022-12-29T16:51:58;9.17;;;6.36;;
73132;SDS011;61320;52.008;4.530;2022-12-29T16:54:24;8.74;;;6.27;;
73132;SDS011;61320;52.008;4.530;2022-12-29T16:57:01;7.24;;;5.51;;
73132;SDS011;61320;52.008;4.530;2022-12-29T16:59:32;7.66;;;5.94;;
73132;SDS011;61320;52.008;4.530;2022-12-29T17:02:06;8.30;;;6.53;;
73132;SDS011;61320;52.008;4.530;2022-12-29T17:04:36;8.12;;;6.70;;
73132;SDS011;61320;52.008;4.530;2022-12-29T17:07:01;8.50;;;7.26;;
73132;SDS011;61320;52.008;4.530;2022-12-29T17:09:27;7.09;;;6.29;;
73132;SDS011;61320;52.008;4.530;2022-12-29T17:11:55;6.16;;;5.22;;
73132;SDS011;61320;52.008;4.530;2022-12-29T17:17:17;7.00;;;5.78;;
73132;SDS011;61320;52.008;4.530;2022-12-29T17:19:52;6.59;;;5.48;;
73132;SDS011;61320;52.008;4.530;2022-12-29T17:22:24;6.60;;;5.45;;
73132;SDS011;61320;52.008;4.530;2022-12-29T17:24:55;7.52;;;6.27;;
73132;SDS011;61320;52.008;4.530;2022-12-29T17:27:29;7.08;;;6.12;;
73132;SDS011;61320;52.008;4.530;2022-12-29T17:30:12;5.25;;;4.50;;
73132;SDS011;61320;52.008;4.530;2022-12-29T17:32:41;5.82;;;4.61;;
73132;SDS011;61320;52.008;4.530;2022-12-29T17:35:15;6.25;;;4.81;;